Nearby METAR Reports

 

KNUQ - Moffett Nas/Mtn, California, USA
Distance from station: N 9mi, 14km
Updated: Thu, 21-Nov-2019 8:56am PST
NOT Current

 
Barometer: 29.86 inHg , 1011.2 hPa
2019/11/21 16:56 KNUQ 211656Z AUTO A2986 RMK AO2 SLP116 PWINO $
KSJC - San Jose, California, USA
Distance from station: NE 9mi, 14km
Updated: Tue, 21-Jan-2020 4:53am PST
Clear
Clear
 Wind from SE
Wind: SE 9 mph , 15 km/h
Temperature: 50°F , 10°C
Wind Chill: 46°F , 8°C
Dew Point: 45°F , 7°C
Humidity: 82%
Barometer: 30.09 inHg , 1019 hPa
Clouds: Clear
Visibility: 10 miles , 16 km
2020/01/21 12:53 KSJC 211253Z AUTO 14008KT 10SM CLR 10/07 A3009 RMK AO2 SLP187 T01000072 $
 
KRHV - San Jose/Reid, California, USA
Distance from station: ENE 12mi, 19km
Updated: Mon, 20-Jan-2020 9:47pm PST
NOT Current
Few Clouds
Few Clouds
 Wind from SSE
Wind: SSE 3 mph , 6 km/h
Temperature: 50°F , 10°C
Dew Point: 46°F , 8°C
Humidity: 88%
Barometer: 30.07 inHg , 1018.3 hPa
Clouds: Few Clouds
Visibility: 10 miles , 16 km
Cloud details: Few Clouds 7000 ft
2020/01/21 05:47 KRHV 210547Z 16003KT 10SM FEW070 10/08 A3007 RMK LAST
KPAO - Palo Alto, California, USA
Distance from station: NNW 14mi, 23km
Updated: Mon, 20-Jan-2020 8:47pm PST
NOT Current
Partly Cloudy
Partly Cloudy
 Wind from ESE
Wind: ESE 3 mph , 6 km/h
Temperature: 46°F , 8°C
Dew Point: 43°F , 6°C
Humidity: 87%
Barometer: 30.05 inHg , 1017.6 hPa
Clouds: Partly Cloudy
Visibility: 10 miles , 16 km
Cloud details: Few Clouds 3000 ft
Partly Cloudy 7000 ft
2020/01/21 04:47 KPAO 210447Z 12003KT 10SM FEW030 SCT070 08/06 A3005 RMK LAST
 
KSQL - San Carlos Airpo, California, USA
Distance from station: NW 21mi, 34km
Updated: Tue, 21-Jan-2020 5:00am PST
Overcast
Overcast
 Wind from SE
Wind: SE 5 mph , 7 km/h
Temperature: 50°F , 10°C
Wind Chill: 48°F , 9°C
Dew Point: 46°F , 8°C
Humidity: 88%
Barometer: 30.09 inHg , 1019 hPa
Clouds: Overcast
Visibility: 10 miles , 16 km
Cloud details: Overcast 4200 ft
2020/01/21 13:00 KSQL 211300Z AUTO 14004KT 10SM OVC042 10/08 A3009 RMK AO2
KWVI - Watsonville, California, USA
Distance from station: SSE 27mi, 44km
Updated: Tue, 21-Jan-2020 4:53am PST
Mostly Cloudy
Mostly Cloudy
 Wind from NNE
Wind: NNE 3 mph , 6 km/h
Temperature: 48°F , 9°C
Dew Point: 46°F , 8°C
Humidity: 94%
Barometer: 30.12 inHg , 1020 hPa
Clouds: Mostly Cloudy
Visibility: 9 miles , 14 km
Cloud details: Few Clouds 1200 ft
Mostly Cloudy 3500 ft
2020/01/21 12:53 KWVI 211253Z AUTO 02003KT 9SM FEW012 BKN035 09/08 A3012 RMK AO2 SLP199 T00940083
 
KHWD - Hayward, California, USA
Distance from station: N 28mi, 44km
Updated: Tue, 21-Jan-2020 4:54am PST
Partly Cloudy
Partly Cloudy
 Wind from SSE
Wind: SSE 6 mph , 9 km/h
Temperature: 50°F , 10°C
Wind Chill: 48°F , 9°C
Dew Point: 45°F , 7°C
Humidity: 82%
Barometer: 30.08 inHg , 1018.6 hPa
Clouds: Partly Cloudy
Visibility: 10 miles , 16 km
Cloud details: Few Clouds 4800 ft
Partly Cloudy 12000 ft
2020/01/21 12:54 KHWD 211254Z 15005KT 10SM FEW048 SCT120 10/07 A3008 RMK AO2 SLP195 T01000067
KSFO - San Francisco, California, USA
Distance from station: NW 30mi, 49km
Updated: Tue, 21-Jan-2020 4:56am PST
Mostly Cloudy
Mostly Cloudy
 Wind from ESE
Wind: ESE 7 mph , 11 km/h
Temperature: 52°F , 11°C
Dew Point: 45°F , 7°C
Humidity: 77%
Barometer: 30.08 inHg , 1018.6 hPa
Clouds: Mostly Cloudy
Visibility: 10 miles , 16 km
Cloud details: Few Clouds 3900 ft
Partly Cloudy 4800 ft
Mostly Cloudy 12000 ft
2020/01/21 12:56 KSFO 211256Z 12006KT 10SM FEW039 SCT048 BKN120 11/07 A3008 RMK AO2 SLP184 T01110072
 
KHAF - Half Moon Bay, California, USA
Distance from station: WNW 31mi, 50km
Updated: Tue, 21-Jan-2020 5:00am PST
Overcast
Overcast
 Wind from SSE
Wind: SSE 9 mph , 15 km/h
Temperature: 54°F , 12°C
Dew Point: 48°F , 9°C
Humidity: 82%
Barometer: 30.09 inHg , 1019 hPa
Clouds: Overcast
Visibility: 10 miles , 16 km
Cloud details: Overcast 3700 ft
2020/01/21 13:00 KHAF 211300Z AUTO 16008KT 10SM OVC037 12/09 A3009 RMK AO2
KOAK - Oakland, California, USA
Distance from station: NNW 31mi, 50km
Updated: Tue, 21-Jan-2020 4:53am PST
Overcast
Overcast
 Wind from ESE
Wind: ESE 8 mph , 13 km/h
Temperature: 52°F , 11°C
Dew Point: 46°F , 8°C
Humidity: 82%
Barometer: 30.09 inHg , 1019 hPa
Clouds: Overcast
Visibility: 10 miles , 16 km
Cloud details: Few Clouds 1500 ft
Overcast 4300 ft
2020/01/21 12:53 KOAK 211253Z 12007KT 10SM FEW015 OVC043 11/08 A3009 RMK AO2 SLP189 T01110078
 
KLVK - Livermore, California, USA
Distance from station: NNE 31mi, 51km
Updated: Tue, 21-Jan-2020 4:53am PST
Few Clouds
Few Clouds
 Wind from E
Wind: E 7 mph , 11 km/h
Temperature: 46°F , 8°C
Wind Chill: 42°F , 6°C
Dew Point: 43°F , 6°C
Humidity: 87%
Barometer: 30.07 inHg , 1018.3 hPa
Clouds: Few Clouds
Visibility: 10 miles , 16 km
Cloud details: Few Clouds 9000 ft
2020/01/21 12:53 KLVK 211253Z AUTO 09006KT 10SM FEW090 08/06 A3007 RMK AO2 SLP181 T00780056
KCVH - Hollister Muni, California, USA
Distance from station: SE 42mi, 68km
Updated: Tue, 21-Jan-2020 4:55am PST
Mostly Cloudy
Mostly Cloudy
 Wind from calm
Wind: Calm
Temperature: 46°F , 8°C
Dew Point: 43°F , 6°C
Humidity: 87%
Barometer: 30.14 inHg , 1020.7 hPa
Clouds: Mostly Cloudy
Visibility: 10 miles , 16 km
Cloud details: Mostly Cloudy 3300 ft
2020/01/21 12:55 KCVH 211255Z AUTO 00000KT 10SM BKN033 08/06 A3014 RMK A01
 
KSNS - Salinas, California, USA
Distance from station: SSE 48mi, 77km
Updated: Tue, 21-Jan-2020 4:53am PST
Clear
Clear
 Wind from SE
Wind: SE 6 mph , 9 km/h
Temperature: 43°F , 6°C
Wind Chill: 39°F , 4°C
Dew Point: 39°F , 4°C
Humidity: 87%
Barometer: 30.13 inHg , 1020.3 hPa
Clouds: Clear
Visibility: 10 miles , 16 km
2020/01/21 12:53 KSNS 211253Z AUTO 14005KT 10SM CLR 06/04 A3013 RMK AO2 SLP210 T00560044
KMRY - Monterey, California, USA
Distance from station: SSE 49mi, 78km
Updated: Tue, 21-Jan-2020 4:54am PST
Partly Cloudy
Partly Cloudy
 Wind from ESE
Wind: ESE 9 mph , 15 km/h
Temperature: 48°F , 9°C
Wind Chill: 44°F , 7°C
Dew Point: 45°F , 7°C
Humidity: 87%
Barometer: 30.11 inHg , 1019.6 hPa
Clouds: Partly Cloudy
Visibility: 10 miles , 16 km
Cloud details: Partly Cloudy 3300 ft
2020/01/21 12:54 KMRY 211254Z AUTO 11008KT 10SM SCT033 09/07 A3011 RMK AO2 SLP209 T00890067
 
KCCR - Concord, California, USA
Distance from station: N 50mi, 81km
Updated: Tue, 21-Jan-2020 4:53am PST
Overcast
Overcast
 Wind from SSE
Wind: SSE 3 mph , 6 km/h
Temperature: 52°F , 11°C
Dew Point: 45°F , 7°C
Humidity: 77%
Barometer: 30.07 inHg , 1018.3 hPa
Clouds: Overcast
Visibility: 10 miles , 16 km
Cloud details: Few Clouds 5000 ft
Overcast 8000 ft
2020/01/21 12:53 KCCR 211253Z AUTO 15003KT 10SM FEW050 OVC080 11/07 A3007 RMK AO2 SLP169 T01060067

Metar display script from Saratoga-Weather.org